Time;durP1;ratioP1;P1;durP2;ratioP2;P2;SDS_P1;SDS_P2;PMS_P1;PMS_P2;Temp;Humidity;BMP_temperature;BMP_pressure;BME280_temperature;BME280_humidity;BME280_pressure;Samples;Min_cycle;Max_cycle;Signal;HPM_P1;HPM_P2
2022/04/05 00:00:38;;;;;;;6.60;3.63;;;;;;;17.24;48.39;100606.47;5047644;28;20041;-59
2022/04/05 00:03:04;;;;;;;7.57;3.88;;;;;;;17.24;47.72;100609.16;5048943;28;20140;-59
2022/04/05 00:05:31;;;;;;;7.32;3.53;;;;;;;17.22;47.73;100613.84;5027028;28;20205;-60
2022/04/05 00:07:57;;;;;;;6.10;3.67;;;;;;;17.24;47.61;100621.69;5055492;28;20059;-59
2022/04/05 00:10:24;;;;;;;4.97;3.10;;;;;;;17.22;47.89;100621.88;5046894;28;20045;-58
2022/04/05 00:12:50;;;;;;;6.43;3.78;;;;;;;17.22;47.82;100619.19;5045236;28;20040;-58
2022/04/05 00:15:17;;;;;;;6.97;3.08;;;;;;;17.23;48.27;100617.34;5045592;28;20120;-59
2022/04/05 00:17:44;;;;;;;6.22;3.10;;;;;;;17.22;48.29;100624.53;5046869;28;20491;-60
2022/04/05 00:20:10;;;;;;;6.72;3.33;;;;;;;17.21;48.26;100625.53;5044967;28;20059;-59
2022/04/05 00:22:37;;;;;;;5.15;2.85;;;;;;;17.22;47.73;100624.53;5045320;28;20168;-61
2022/04/05 00:25:04;;;;;;;5.43;2.88;;;;;;;17.21;48.59;100630.91;5048826;28;20057;-59
2022/04/05 00:27:31;;;;;;;6.45;3.28;;;;;;;17.21;48.09;100636.25;5047587;28;20041;-59
2022/04/05 00:29:59;;;;;;;6.60;2.88;;;;;;;17.21;47.83;100633.59;5048286;28;20064;-59
2022/04/05 00:32:27;;;;;;;7.63;2.97;;;;;;;17.20;48.32;100637.22;5046766;28;20978;-59
2022/04/05 00:34:53;;;;;;;5.70;2.70;;;;;;;17.20;48.49;100642.59;5048273;28;20236;-58
2022/04/05 00:37:20;;;;;;;7.97;3.25;;;;;;;17.19;48.05;100648.94;5047757;28;20047;-59
2022/04/05 00:39:50;;;;;;;4.38;2.42;;;;;;;17.19;48.04;100645.44;5047372;28;20128;-60
2022/04/05 00:42:17;;;;;;;7.15;3.13;;;;;;;17.21;48.48;100635.41;5046605;28;20052;-58
2022/04/05 00:44:44;;;;;;;5.93;2.67;;;;;;;17.21;47.84;100640.78;5049072;28;20051;-59
2022/04/05 00:47:19;;;;;;;5.15;3.10;;;;;;;17.21;47.66;100638.09;5045925;28;20063;-59
2022/04/05 00:49:48;;;;;;;5.95;2.50;;;;;;;17.21;48.08;100652.34;5048737;28;20053;-58
2022/04/05 00:52:16;;;;;;;4.43;2.05;;;;;;;17.21;48.13;100638.94;5045805;28;20051;-59
2022/04/05 00:54:45;;;;;;;6.60;2.80;;;;;;;17.19;48.32;100638.22;5047878;28;20507;-60
2022/04/05 00:57:16;;;;;;;6.10;2.97;;;;;;;17.19;47.90;100630.19;5045140;28;20049;-59
2022/04/05 00:59:46;;;;;;;6.93;2.50;;;;;;;17.19;48.17;100635.56;5047410;28;20128;-58
2022/04/05 01:02:21;;;;;;;4.95;2.55;;;;;;;17.17;48.51;100631.38;5045533;28;20438;-59
2022/04/05 01:04:49;;;;;;;4.85;2.45;;;;;;;17.19;48.37;100640.06;5049325;28;20060;-59
2022/04/05 01:07:18;;;;;;;5.70;2.97;;;;;;;17.19;47.98;100646.28;5048915;28;20096;-60
2022/04/05 01:09:45;;;;;;;4.00;2.40;;;;;;;17.17;47.79;100645.59;5046175;28;20441;-59
2022/04/05 01:12:13;;;;;;;4.00;2.20;;;;;;;17.16;47.68;100643.88;5046925;28;20093;-59
2022/04/05 01:14:41;;;;;;;4.82;2.22;;;;;;;17.17;47.82;100644.75;5045966;28;20361;-59
2022/04/05 01:17:08;;;;;;;4.78;2.70;;;;;;;17.17;48.13;100650.13;5048002;28;20040;-59
2022/04/05 01:19:34;;;;;;;5.00;2.13;;;;;;;17.17;47.79;100647.44;5043367;28;20140;-58
2022/04/05 01:22:02;;;;;;;5.13;2.47;;;;;;;17.15;48.18;100642.22;5046394;28;20448;-59
2022/04/05 01:24:29;;;;;;;3.65;1.90;;;;;;;17.14;48.35;100645.06;5043890;28;20049;-60
2022/04/05 01:26:57;;;;;;;3.83;2.00;;;;;;;17.14;47.95;100648.56;5035951;28;20048;-59
2022/04/05 01:29:25;;;;;;;5.72;2.50;;;;;;;17.14;48.34;100653.94;5039379;28;20068;-60
2022/04/05 01:31:58;;;;;;;3.83;2.00;;;;;;;17.14;48.18;100656.59;5046150;28;20049;-60
2022/04/05 01:34:27;;;;;;;4.05;2.28;;;;;;;17.14;48.47;100645.91;5045197;28;20045;-59
2022/04/05 01:36:57;;;;;;;3.15;1.92;;;;;;;17.15;47.92;100654.75;5029958;28;20040;-60
2022/04/05 01:39:27;;;;;;;5.38;2.25;;;;;;;17.13;47.75;100644.22;5045565;28;20119;-60
2022/04/05 01:41:57;;;;;;;3.90;1.88;;;;;;;17.13;48.20;100659.44;5025894;28;20063;-60
2022/04/05 01:44:25;;;;;;;3.75;1.80;;;;;;;17.13;48.42;100652.25;5028233;28;20077;-59
2022/04/05 01:46:52;;;;;;;5.03;1.90;;;;;;;17.12;48.51;100653.22;5046071;28;20084;-60
2022/04/05 01:49:20;;;;;;;4.43;2.03;;;;;;;17.12;48.21;100644.34;5046380;28;20123;-59
2022/04/05 01:51:46;;;;;;;2.60;1.80;;;;;;;17.12;48.43;100642.50;5044191;28;20048;-58
2022/04/05 01:54:16;;;;;;;6.30;2.00;;;;;;;17.13;48.51;100640.69;5042476;28;20495;-59
2022/04/05 01:56:49;;;;;;;2.50;1.73;;;;;;;17.12;48.02;100644.34;5044591;28;20059;-59
2022/04/05 01:59:22;;;;;;;2.38;1.35;;;;;;;17.11;47.70;100631.97;5043976;28;20088;-59
2022/04/05 02:01:49;;;;;;;2.90;1.80;;;;;;;17.11;48.04;100638.16;5027305;28;20135;-60
2022/04/05 02:04:16;;;;;;;2.75;1.75;;;;;;;17.10;47.65;100628.44;5046667;28;20037;-59
2022/04/05 02:06:43;;;;;;;4.65;1.70;;;;;;;17.10;48.07;100631.13;5044813;28;20041;-58
2022/04/05 02:09:14;;;;;;;2.67;1.65;;;;;;;17.10;47.90;100625.78;5046161;28;20124;-59
2022/04/05 02:11:47;;;;;;;2.85;1.50;;;;;;;17.10;47.89;100623.09;5046427;28;20045;-61
2022/04/05 02:14:16;;;;;;;2.60;1.50;;;;;;;17.10;47.96;100631.13;5044197;28;20095;-58
2022/04/05 02:16:42;;;;;;;3.17;1.95;;;;;;;17.09;48.08;100629.44;5044284;28;20383;-60
2022/04/05 02:19:09;;;;;;;4.53;1.77;;;;;;;17.10;47.91;100624.94;5029234;28;20045;-59
2022/04/05 02:21:36;;;;;;;3.80;1.70;;;;;;;17.08;47.72;100633.09;5045123;28;20331;-58
2022/04/05 02:24:04;;;;;;;3.30;1.58;;;;;;;17.09;47.74;100636.66;5043966;28;20131;-59
2022/04/05 02:26:31;;;;;;;3.25;1.80;;;;;;;17.08;48.65;100630.41;5047135;28;20052;-58
2022/04/05 02:28:57;;;;;;;3.03;1.73;;;;;;;17.08;48.47;100637.63;5047495;28;20055;-58
2022/04/05 02:31:24;;;;;;;3.88;1.73;;;;;;;17.08;48.07;100638.44;5026929;28;20136;-58
2022/04/05 02:33:51;;;;;;;2.65;1.45;;;;;;;17.08;47.67;100643.81;5045777;28;20055;-59
2022/04/05 02:36:17;;;;;;;1.67;1.33;;;;;;;17.07;48.33;100639.47;5045102;28;20075;-59
2022/04/05 02:38:44;;;;;;;3.03;1.83;;;;;;;17.08;48.11;100633.09;5045086;28;20063;-59
2022/04/05 02:41:11;;;;;;;3.10;1.45;;;;;;;17.06;47.57;100640.47;5043967;28;20828;-59
2022/04/05 02:43:38;;;;;;;1.42;1.33;;;;;;;17.06;48.43;100635.09;5044825;28;20040;-60
2022/04/05 02:46:07;;;;;;;2.10;1.40;;;;;;;17.08;47.95;100635.78;5044960;28;20063;-58
2022/04/05 02:48:33;;;;;;;3.38;1.70;;;;;;;17.06;47.98;100639.63;5045108;28;20084;-59
2022/04/05 02:51:00;;;;;;;2.65;1.38;;;;;;;17.07;48.10;100643.97;5042603;28;20077;-58
2022/04/05 02:53:26;;;;;;;3.15;1.48;;;;;;;17.06;48.07;100634.25;5025999;28;20404;-58
2022/04/05 02:55:53;;;;;;;2.88;1.52;;;;;;;17.06;48.62;100634.25;5044046;28;20128;-57
2022/04/05 02:58:20;;;;;;;2.47;1.35;;;;;;;17.06;47.63;100635.09;5045448;28;20041;-58
2022/04/05 03:00:46;;;;;;;1.98;1.38;;;;;;;17.06;48.10;100634.25;5043274;28;20677;-59
2022/04/05 03:03:13;;;;;;;3.75;1.63;;;;;;;17.07;47.74;100625.22;5045310;28;20049;-58
2022/04/05 03:05:39;;;;;;;2.63;1.70;;;;;;;17.05;47.98;100622.72;5046840;28;20119;-59
2022/04/05 03:08:06;;;;;;;3.78;1.83;;;;;;;17.05;48.32;100633.44;5049071;28;20343;-58
2022/04/05 03:10:32;;;;;;;3.45;1.60;;;;;;;17.05;48.58;100633.44;5042645;28;20144;-60
2022/04/05 03:13:01;;;;;;;2.40;1.40;;;;;;;17.03;48.15;100620.16;5043569;28;20044;-59
2022/04/05 03:15:27;;;;;;;2.22;1.58;;;;;;;17.04;48.45;100631.72;5043942;28;20124;-59
2022/04/05 03:17:55;;;;;;;3.03;1.40;;;;;;;17.06;48.48;100634.25;5044083;28;20059;-60
2022/04/05 03:20:22;;;;;;;3.40;1.88;;;;;;;17.02;48.52;100623.00;5043148;28;20045;-59
2022/04/05 03:22:49;;;;;;;6.47;1.52;;;;;;;17.01;47.84;100640.09;5044099;28;20136;-59
2022/04/05 03:25:15;;;;;;;3.72;1.20;;;;;;;17.01;48.29;100640.09;5042844;28;20045;-59
2022/04/05 03:27:43;;;;;;;1.77;1.05;;;;;;;17.01;48.14;100635.56;5045285;28;20134;-59
2022/04/05 03:30:13;;;;;;;3.25;1.30;;;;;;;17.02;47.89;100625.69;5041207;28;20037;-59
2022/04/05 03:32:39;;;;;;;3.38;1.13;;;;;;;17.01;47.96;100627.53;5044433;28;20131;-59
2022/04/05 03:35:07;;;;;;;1.90;0.90;;;;;;;17.02;48.30;100628.38;5044077;28;20057;-58
2022/04/05 03:37:34;;;;;;;4.03;1.45;;;;;;;17.02;48.41;100623.00;5044192;28;20049;-59
2022/04/05 03:40:02;;;;;;;1.70;1.15;;;;;;;17.02;48.07;100629.22;5043641;28;20442;-59
2022/04/05 03:42:28;;;;;;;2.00;1.10;;;;;;;17.02;48.56;100618.50;5043924;28;20063;-59
2022/04/05 03:44:55;;;;;;;1.90;1.20;;;;;;;17.01;48.31;100615.97;5025342;28;20064;-61
2022/04/05 03:47:23;;;;;;;2.80;1.10;;;;;;;16.99;48.66;100613.44;5029527;28;20123;-58
2022/04/05 03:49:49;;;;;;;3.25;1.00;;;;;;;17.00;48.29;100609.78;5042770;28;20037;-59
2022/04/05 03:52:16;;;;;;;2.42;1.23;;;;;;;17.00;48.52;100616.94;5042071;28;20063;-59
2022/04/05 03:54:43;;;;;;;1.25;1.15;;;;;;;17.00;48.70;100615.16;5040619;28;20037;-60
2022/04/05 03:57:09;;;;;;;2.00;1.33;;;;;;;17.00;48.23;100611.59;5046213;28;20396;-59
2022/04/05 03:59:36;;;;;;;1.20;1.10;;;;;;;17.00;48.21;100612.47;5044167;28;20136;-60
2022/04/05 04:02:02;;;;;;;2.08;1.20;;;;;;;16.99;48.50;100610.75;5045009;28;20053;-60
2022/04/05 04:04:30;;;;;;;2.28;1.00;;;;;;;16.99;48.00;100608.09;5043578;28;21102;-61
2022/04/05 04:06:57;;;;;;;1.77;1.10;;;;;;;16.99;48.56;100604.56;5045633;28;20060;-58
2022/04/05 04:09:23;;;;;;;2.45;1.13;;;;;;;17.00;49.05;100608.91;5042591;28;20061;-60
2022/04/05 04:11:50;;;;;;;1.40;0.90;;;;;;;17.01;48.66;100607.94;5042854;28;20045;-58
2022/04/05 04:14:17;;;;;;;1.35;1.02;;;;;;;16.99;47.93;100604.56;5043782;28;20356;-60
2022/04/05 04:16:43;;;;;;;1.42;0.98;;;;;;;17.00;48.63;100598.22;5045366;28;20128;-59
2022/04/05 04:19:10;;;;;;;1.98;1.00;;;;;;;16.99;48.13;100602.72;5049254;28;20313;-59
2022/04/05 04:21:36;;;;;;;2.08;1.25;;;;;;;17.01;48.63;100599.91;5047205;28;20131;-59
2022/04/05 04:24:03;;;;;;;1.88;1.10;;;;;;;17.00;47.84;100592.84;5047319;28;20127;-59
2022/04/05 04:26:30;;;;;;;1.30;1.00;;;;;;;17.00;48.37;100596.41;5049014;28;20045;-58
2022/04/05 04:29:00;;;;;;;1.77;1.05;;;;;;;16.99;48.74;100585.81;5046657;28;20041;-58
2022/04/05 04:31:28;;;;;;;1.70;1.00;;;;;;;16.99;47.98;100596.53;5048548;28;20377;-60
2022/04/05 04:33:54;;;;;;;1.90;1.00;;;;;;;16.99;48.89;100597.38;5048308;28;20052;-59
2022/04/05 04:36:21;;;;;;;1.27;0.90;;;;;;;16.98;48.34;100600.22;5046518;28;20059;-59
2022/04/05 04:38:49;;;;;;;1.08;0.73;;;;;;;16.98;48.08;100595.69;5045650;28;20055;-59
2022/04/05 04:41:16;;;;;;;1.27;0.90;;;;;;;16.98;48.56;100597.53;5048290;28;20116;-58
2022/04/05 04:43:42;;;;;;;2.50;1.08;;;;;;;16.98;47.95;100593.03;5048110;28;20120;-59
2022/04/05 04:46:09;;;;;;;1.98;1.05;;;;;;;16.99;48.13;100588.50;5048879;28;20049;-59
2022/04/05 04:48:36;;;;;;;2.38;0.85;;;;;;;16.97;48.22;100588.66;5048224;28;20056;-59
2022/04/05 04:51:02;;;;;;;2.13;0.90;;;;;;;16.97;48.29;100587.84;5048691;28;20052;-60
2022/04/05 04:53:29;;;;;;;1.65;0.85;;;;;;;16.97;48.46;100593.19;5046183;28;20136;-58
2022/04/05 04:55:55;;;;;;;2.63;0.88;;;;;;;16.97;48.27;100593.19;5048033;28;20055;-60
2022/04/05 04:58:34;;;;;;;1.13;0.80;;;;;;;16.97;48.51;100595.88;5046604;28;20421;-58
2022/04/05 05:01:00;;;;;;;0.90;0.73;;;;;;;16.96;48.75;100586.97;5047405;28;20092;-60
2022/04/05 05:03:27;;;;;;;1.23;0.93;;;;;;;16.97;48.24;100590.50;5045406;28;20053;-59
2022/04/05 05:05:54;;;;;;;1.25;1.00;;;;;;;16.95;48.71;100596.00;5046277;28;20045;-60
2022/04/05 05:08:21;;;;;;;1.40;0.93;;;;;;;16.96;47.87;100595.00;5049920;28;20092;-60
2022/04/05 05:10:48;;;;;;;1.63;1.00;;;;;;;16.96;48.70;100592.31;5045310;28;20045;-60
2022/04/05 05:13:17;;;;;;;1.80;1.08;;;;;;;16.97;48.57;100595.88;5049582;28;20055;-60
2022/04/05 05:15:45;;;;;;;2.40;0.82;;;;;;;16.95;48.19;100592.47;5047501;28;20053;-60
2022/04/05 05:18:11;;;;;;;2.72;0.80;;;;;;;16.95;48.78;100590.66;5045684;28;20091;-61
2022/04/05 05:20:38;;;;;;;1.65;0.80;;;;;;;16.96;48.79;100589.63;5043505;28;21650;-60
2022/04/05 05:23:05;;;;;;;1.65;1.13;;;;;;;16.96;48.80;100588.81;5025630;28;20052;-60
2022/04/05 05:25:32;;;;;;;1.00;0.82;;;;;;;16.96;48.73;100597.66;5046898;28;20491;-60
2022/04/05 05:27:59;;;;;;;1.65;0.90;;;;;;;16.96;48.58;100592.31;5042993;28;20227;-61
2022/04/05 05:30:25;;;;;;;1.08;0.90;;;;;;;16.94;48.17;100591.66;5044671;28;20113;-60
2022/04/05 05:32:52;;;;;;;1.48;0.93;;;;;;;16.95;48.24;100596.00;5048322;28;20124;-59
2022/04/05 05:35:21;;;;;;;1.85;1.08;;;;;;;16.94;48.59;100593.50;5043426;28;20115;-58
2022/04/05 05:37:49;;;;;;;1.95;0.95;;;;;;;16.93;48.90;100592.66;5044757;28;20048;-58
2022/04/05 05:40:16;;;;;;;2.42;1.15;;;;;;;16.94;49.07;100599.69;5025066;28;20029;-59
2022/04/05 05:43:03;;;;;;;1.70;1.00;;;;;;;16.94;48.48;100596.16;5047546;28;20040;-59
2022/04/05 05:45:32;;;;;;;2.03;0.88;;;;;;;16.94;48.98;100596.16;5045447;28;20114;-60
2022/04/05 05:47:59;;;;;;;1.65;1.10;;;;;;;16.96;48.23;100602.19;5045997;28;20119;-59
2022/04/05 05:50:27;;;;;;;1.45;0.90;;;;;;;16.96;48.63;100603.03;5045094;28;20053;-59
2022/04/05 05:52:53;;;;;;;1.23;0.90;;;;;;;16.97;49.09;100609.25;5043931;28;20051;-61
2022/04/05 05:55:21;;;;;;;2.95;1.25;;;;;;;16.97;48.34;100625.31;5049863;28;20053;-59
2022/04/05 05:57:48;;;;;;;1.55;1.00;;;;;;;16.95;48.55;100613.91;5033539;28;20094;-60
2022/04/05 06:00:20;;;;;;;7.80;1.23;;;;;;;16.97;48.63;100619.97;5048742;28;20047;-59
2022/04/05 06:02:50;;;;;;;4.07;1.25;;;;;;;16.97;48.75;100618.13;5049426;28;20053;-60
2022/04/05 06:05:16;;;;;;;2.50;1.38;;;;;;;16.97;48.80;100617.28;5047522;28;20037;-60
2022/04/05 06:07:43;;;;;;;1.48;0.90;;;;;;;16.97;49.17;100617.28;5046329;28;21032;-59
2022/04/05 06:10:11;;;;;;;2.58;1.40;;;;;;;16.96;48.64;100608.38;5046964;28;20040;-60
2022/04/05 06:12:43;;;;;;;2.85;1.08;;;;;;;16.95;48.54;100622.78;5042475;28;20111;-60
2022/04/05 06:15:12;;;;;;;2.05;1.15;;;;;;;16.97;48.61;100628.00;5041865;28;20051;-59
2022/04/05 06:17:43;;;;;;;2.28;1.13;;;;;;;16.97;48.76;100625.31;5045274;28;20049;-59
2022/04/05 06:20:11;;;;;;;3.17;1.10;;;;;;;16.99;48.17;100621.47;5042323;28;20882;-59
2022/04/05 06:22:48;;;;;;;2.60;1.10;;;;;;;16.99;48.98;100624.16;5044655;28;20076;-60
2022/04/05 06:25:21;;;;;;;1.95;0.90;;;;;;;16.98;48.88;100638.53;5045420;28;20084;-59
2022/04/05 06:27:48;;;;;;;1.80;0.85;;;;;;;17.00;48.63;100635.69;5043670;28;20128;-60
2022/04/05 06:30:16;;;;;;;2.28;1.10;;;;;;;16.99;48.36;100634.84;5045701;28;20162;-61
2022/04/05 06:32:43;;;;;;;1.60;1.00;;;;;;;17.00;48.86;100635.69;5046645;28;20044;-59
2022/04/05 06:35:12;;;;;;;5.63;1.25;;;;;;;17.01;48.80;100637.41;5045276;28;20081;-60
2022/04/05 06:37:43;;;;;;;1.73;1.30;;;;;;;17.01;48.73;100627.53;5045806;28;20057;-59
2022/04/05 06:40:11;;;;;;;2.58;1.30;;;;;;;17.01;48.91;100642.75;5043361;28;20055;-59
2022/04/05 06:42:43;;;;;;;1.77;1.00;;;;;;;17.02;48.74;100637.25;5045104;28;20052;-59
2022/04/05 06:45:15;;;;;;;1.63;1.08;;;;;;;17.03;48.31;100646.09;5038930;28;20131;-60
2022/04/05 06:47:41;;;;;;;2.42;1.20;;;;;;;17.03;48.66;100649.63;5042860;28;20354;-58
2022/04/05 06:50:10;;;;;;;2.90;1.30;;;;;;;17.05;48.18;100641.47;5046659;28;20041;-59
2022/04/05 06:52:39;;;;;;;2.20;0.95;;;;;;;17.03;48.18;100646.09;5042421;28;20147;-59
2022/04/05 06:55:08;;;;;;;2.63;1.10;;;;;;;17.03;47.93;100648.78;5042480;28;20049;-58
2022/04/05 06:57:35;;;;;;;3.17;1.05;;;;;;;17.05;47.78;100648.66;5048388;28;20051;-58
2022/04/05 07:00:04;;;;;;;1.92;1.15;;;;;;;17.05;48.76;100649.50;5048278;28;20365;-58
2022/04/05 07:02:30;;;;;;;4.38;1.15;;;;;;;17.03;48.91;100657.66;5044199;28;20484;-59
2022/04/05 07:04:57;;;;;;;2.35;1.15;;;;;;;17.03;48.13;100659.50;5046375;28;20144;-58
2022/04/05 07:07:24;;;;;;;3.40;1.40;;;;;;;17.04;49.08;100658.50;5049284;28;20133;-59
2022/04/05 07:09:50;;;;;;;1.92;1.23;;;;;;;17.05;48.80;100664.72;5041665;28;20091;-59
2022/04/05 07:12:17;;;;;;;3.40;0.88;;;;;;;17.05;49.23;100657.53;5041398;28;20493;-60
2022/04/05 07:14:43;;;;;;;2.17;1.30;;;;;;;17.05;48.43;100652.16;5040713;28;20055;-59
2022/04/05 07:17:10;;;;;;;3.30;1.25;;;;;;;17.05;48.45;100654.84;5042687;28;20127;-61
2022/04/05 07:19:36;;;;;;;2.30;1.05;;;;;;;17.05;48.67;100654.00;5039090;28;20060;-60
2022/04/05 07:22:03;;;;;;;2.38;0.98;;;;;;;17.06;49.03;100661.88;5041482;28;20135;-60
2022/04/05 07:24:30;;;;;;;1.98;0.90;;;;;;;17.06;48.00;100659.19;5039671;28;20057;-59
2022/04/05 07:26:56;;;;;;;1.75;1.10;;;;;;;17.06;48.40;100661.88;5036836;28;20119;-59
2022/04/05 07:29:23;;;;;;;2.25;1.13;;;;;;;17.06;49.03;100661.88;5036577;28;20036;-60
2022/04/05 07:31:50;;;;;;;2.60;0.93;;;;;;;17.06;48.25;100661.88;5035633;28;20045;-60
2022/04/05 07:34:16;;;;;;;1.73;1.10;;;;;;;17.06;48.59;100667.22;5036598;28;20127;-60
2022/04/05 07:36:43;;;;;;;4.28;1.20;;;;;;;17.06;48.87;100650.34;5038941;28;20120;-59
2022/04/05 07:39:10;;;;;;;2.28;1.10;;;;;;;17.07;48.87;100655.53;5044702;28;20128;-58
2022/04/05 07:41:37;;;;;;;1.77;0.93;;;;;;;17.10;48.82;100657.06;5044000;28;20128;-59
2022/04/05 07:44:05;;;;;;;3.05;1.30;;;;;;;17.11;48.61;100650.72;5043765;28;20045;-59
2022/04/05 07:46:31;;;;;;;5.15;1.73;;;;;;;17.14;48.24;100651.25;5029492;28;20212;-58
2022/04/05 07:48:58;;;;;;;3.40;1.20;;;;;;;17.19;47.81;100650.78;5044530;28;20077;-59
2022/04/05 07:51:25;;;;;;;3.22;1.42;;;;;;;17.25;48.21;100659.06;5039321;28;20385;-60
2022/04/05 07:53:51;;;;;;;3.42;1.20;;;;;;;17.32;48.97;100653.91;5048746;28;20131;-60
2022/04/05 07:56:18;;;;;;;2.88;1.17;;;;;;;17.41;49.20;100657.53;5047617;28;20657;-59
2022/04/05 07:58:45;;;;;;;5.63;1.25;;;;;;;17.47;48.79;100659.56;5046963;28;20135;-61
2022/04/05 08:01:11;;;;;;;5.65;1.48;;;;;;;17.55;48.70;100662.31;5047350;28;20127;-60
2022/04/05 08:03:39;;;;;;;4.93;1.23;;;;;;;17.60;48.99;100659.19;5049550;28;20382;-60
2022/04/05 08:06:06;;;;;;;4.50;1.50;;;;;;;17.66;48.61;100656.72;5045440;28;20336;-61
2022/04/05 08:08:32;;;;;;;5.68;1.20;;;;;;;17.73;48.56;100656.97;5046583;28;20687;-61
2022/04/05 08:11:20;;;;;;;12.13;6.90;;;;;;;17.81;48.81;100653.50;5030981;28;20049;-60
2022/04/05 08:13:47;;;;;;;15.68;8.60;;;;;;;17.86;48.55;100643.16;5048162;28;20135;-60
2022/04/05 08:16:13;;;;;;;14.18;7.97;;;;;;;17.91;48.78;100656.94;5046125;28;20143;-59
2022/04/05 08:18:40;;;;;;;11.57;7.20;;;;;;;17.96;48.43;100657.28;5047931;28;20044;-59
2022/04/05 08:21:06;;;;;;;11.55;7.63;;;;;;;18.02;48.24;100655.84;5043717;28;20045;-59
2022/04/05 08:23:33;;;;;;;13.65;7.60;;;;;;;18.06;48.19;100654.53;5049424;28;20064;-59
2022/04/05 08:26:00;;;;;;;12.63;7.38;;;;;;;18.11;48.35;100657.56;5049163;28;20052;-58
2022/04/05 08:28:26;;;;;;;12.90;7.70;;;;;;;18.15;48.50;100659.75;5033593;28;20132;-59
2022/04/05 08:30:53;;;;;;;11.02;6.47;;;;;;;18.20;48.51;100659.28;5049707;28;20035;-58
2022/04/05 08:33:19;;;;;;;10.50;5.60;;;;;;;18.23;48.33;100662.50;5047489;28;20436;-58
2022/04/05 08:35:47;;;;;;;7.78;5.07;;;;;;;18.28;47.79;100659.31;5046034;28;20412;-59
2022/04/05 08:38:13;;;;;;;8.95;5.05;;;;;;;18.32;47.72;100662.53;5046337;28;20049;-59
2022/04/05 08:40:40;;;;;;;10.65;5.50;;;;;;;18.36;47.93;100667.41;5050648;28;20140;-58
2022/04/05 08:43:07;;;;;;;8.80;5.50;;;;;;;18.40;48.33;100676.84;5052130;28;20037;-59
2022/04/05 08:45:35;;;;;;;8.32;5.68;;;;;;;18.43;47.83;100673.84;5051619;28;20131;-58
2022/04/05 08:48:09;;;;;;;11.48;5.75;;;;;;;18.47;47.87;100674.34;5045242;28;20052;-58
2022/04/05 08:50:36;;;;;;;9.20;5.13;;;;;;;18.51;47.82;100678.41;5051206;28;20052;-59
2022/04/05 08:53:03;;;;;;;7.75;4.50;;;;;;;18.55;47.57;100673.56;5050441;28;20068;-58
2022/04/05 08:55:35;;;;;;;8.10;5.20;;;;;;;18.58;47.55;100679.44;5050033;28;20314;-60
2022/04/05 08:58:03;;;;;;;8.93;4.53;;;;;;;18.62;47.20;100677.28;5049893;28;20379;-60
2022/04/05 09:00:30;;;;;;;7.50;4.68;;;;;;;18.65;47.62;100685.00;5048445;28;20077;-59
2022/04/05 09:02:59;;;;;;;9.32;4.50;;;;;;;18.67;48.06;100678.47;5048141;28;20045;-58
2022/04/05 09:05:36;;;;;;;6.07;4.28;;;;;;;18.71;47.97;100676.34;5050549;28;20053;-59
2022/04/05 09:08:28;;;;;;;7.70;4.30;;;;;;;18.72;47.95;100681.53;5025065;28;20052;-59
2022/04/05 09:11:10;;;;;;;9.15;5.43;;;;;;;18.76;48.20;100673.16;5042674;28;20144;-59
2022/04/05 09:13:37;;;;;;;30.90;17.58;;;;;;;18.79;48.00;100679.03;5049405;28;20119;-59
2022/04/05 09:16:05;;;;;;;43.30;22.70;;;;;;;18.82;47.92;100681.41;5049298;28;20120;-60
2022/04/05 09:18:40;;;;;;;43.72;24.38;;;;;;;18.85;48.13;100677.53;5050874;28;20044;-59
2022/04/05 09:21:09;;;;;;;40.75;22.52;;;;;;;18.87;47.90;100680.91;5050716;28;20156;-59
2022/04/05 09:23:39;;;;;;;39.10;22.33;;;;;;;18.88;47.43;100686.13;5050542;28;20071;-59
2022/04/05 09:26:16;;;;;;;37.13;19.77;;;;;;;18.90;47.56;100685.97;5049802;28;20127;-61
2022/04/05 09:28:45;;;;;;;37.97;20.25;;;;;;;18.92;47.66;100681.25;5049808;28;20049;-60
2022/04/05 09:31:14;;;;;;;32.60;18.70;;;;;;;18.93;47.44;100693.69;5050672;28;20128;-59
2022/04/05 09:34:04;;;;;;;31.40;16.90;;;;;;;18.93;47.53;100686.47;5051726;28;20073;-59
2022/04/05 09:36:39;;;;;;;30.40;17.17;;;;;;;18.93;47.85;100689.16;5051376;28;20127;-60
2022/04/05 09:39:16;;;;;;;30.80;16.80;;;;;;;18.93;47.44;100699.06;5050562;28;20576;-59
2022/04/05 09:41:47;;;;;;;29.45;15.95;;;;;;;18.93;47.43;100696.38;5032226;28;20144;-57
2022/04/05 09:44:25;;;;;;;26.30;15.20;;;;;;;18.91;47.59;100687.66;5047465;28;20041;-59
2022/04/05 09:47:11;;;;;;;25.95;14.45;;;;;;;18.90;47.64;100692.19;5033257;28;20124;-57
2022/04/05 09:49:41;;;;;;;25.30;14.63;;;;;;;18.89;47.49;100695.84;5048645;28;20515;-58
2022/04/05 09:52:24;;;;;;;24.98;14.82;;;;;;;18.87;47.90;100691.66;5048054;28;20037;-58
2022/04/05 09:54:52;;;;;;;26.25;14.45;;;;;;;18.85;47.52;100694.50;5048246;28;20290;-59
2022/04/05 09:57:31;;;;;;;24.98;13.90;;;;;;;18.84;47.36;100700.88;5051664;28;20045;-58
2022/04/05 10:00:17;;;;;;;25.33;13.30;;;;;;;18.82;47.74;100699.38;5045544;28;20049;-59
2022/04/05 10:03:04;;;;;;;23.45;12.35;;;;;;;18.80;47.58;100706.75;5045114;28;20041;-58
2022/04/05 10:05:35;;;;;;;21.00;12.43;;;;;;;18.79;47.90;100699.69;5041783;28;20057;-60
2022/04/05 10:08:03;;;;;;;21.67;11.18;;;;;;;18.77;48.03;100701.69;5042863;28;20116;-58
2022/04/05 10:10:30;;;;;;;22.35;12.00;;;;;;;18.74;47.91;100690.28;5028455;28;20045;-58
2022/04/05 10:12:57;;;;;;;18.05;11.00;;;;;;;18.74;47.78;100698.34;5037322;28;20055;-58
2022/04/05 10:15:25;;;;;;;20.55;10.88;;;;;;;18.72;47.61;100703.00;5039332;28;20052;-60
2022/04/05 10:17:53;;;;;;;22.02;11.95;;;;;;;18.72;47.88;100704.84;5042016;28;20045;-58
2022/04/05 10:20:20;;;;;;;21.60;11.65;;;;;;;18.69;47.66;100700.63;5040862;28;20099;-58
2022/04/05 10:22:56;;;;;;;28.77;14.77;;;;;;;18.68;47.91;100704.31;5042992;28;20047;-58
2022/04/05 10:25:24;;;;;;;29.20;16.40;;;;;;;18.68;48.03;100704.31;5042723;28;20512;-58
2022/04/05 10:27:51;;;;;;;27.92;15.50;;;;;;;18.68;47.83;100704.31;5043543;28;20099;-58
2022/04/05 10:30:25;;;;;;;25.70;15.20;;;;;;;18.66;47.93;100709.00;5025636;28;20048;-58
2022/04/05 10:33:20;;;;;;;24.10;13.95;;;;;;;18.66;47.52;100706.31;5045647;28;20130;-58
2022/04/05 10:35:53;;;;;;;23.17;14.27;;;;;;;18.65;48.32;100707.34;5039035;28;20084;-59
2022/04/05 10:38:21;;;;;;;24.63;14.38;;;;;;;18.64;48.08;100702.94;5039935;28;20136;-59
2022/04/05 10:41:17;;;;;;;23.98;13.13;;;;;;;18.63;47.97;100712.00;5035333;28;20140;-59
2022/04/05 10:43:46;;;;;;;24.92;13.48;;;;;;;18.65;48.01;100701.09;5044179;28;20349;-58
2022/04/05 10:46:13;;;;;;;21.27;11.82;;;;;;;18.63;47.67;100705.81;5044720;28;20131;-59
2022/04/05 10:48:56;;;;;;;22.52;11.40;;;;;;;18.65;47.87;100704.66;5047324;28;20380;-59
2022/04/05 10:51:31;;;;;;;19.45;10.98;;;;;;;18.65;48.11;100704.66;5044331;28;20225;-60
2022/04/05 10:54:34;;;;;;;19.40;11.30;;;;;;;18.66;48.08;100710.84;5044645;28;20456;-58
2022/04/05 10:57:16;;;;;;;20.85;10.35;;;;;;;18.68;48.54;100709.66;5033253;28;20051;-59
2022/04/05 10:59:53;;;;;;;19.45;10.15;;;;;;;18.71;48.00;100709.38;5041073;28;20140;-58
2022/04/05 11:02:39;;;;;;;16.52;9.38;;;;;;;18.74;48.05;100709.06;5050278;28;20073;-59
2022/04/05 11:05:41;;;;;;;17.17;9.38;;;;;;;18.77;47.66;100707.06;5049332;28;20036;-59
2022/04/05 11:08:13;;;;;;;14.52;8.82;;;;;;;18.80;47.96;100698.69;5043864;28;20052;-58
2022/04/05 11:10:40;;;;;;;16.38;8.60;;;;;;;18.82;48.17;100694.84;5046828;28;20077;-60
2022/04/05 11:13:09;;;;;;;14.40;8.32;;;;;;;18.83;48.03;100698.38;5048679;28;20037;-59
2022/04/05 11:15:47;;;;;;;18.50;8.20;;;;;;;18.83;48.43;100704.56;5049515;28;20072;-58
2022/04/05 11:18:18;;;;;;;12.55;7.30;;;;;;;18.85;48.01;100690.97;5044984;28;20814;-61
2022/04/05 11:20:47;;;;;;;16.35;7.40;;;;;;;18.85;48.04;100701.72;5049385;28;20129;-59
2022/04/05 11:23:16;;;;;;;10.82;6.50;;;;;;;18.86;48.02;100690.00;5048007;28;20132;-58
2022/04/05 11:25:45;;;;;;;12.25;6.70;;;;;;;18.85;48.06;100704.41;5047141;28;20144;-59
2022/04/05 11:28:20;;;;;;;13.55;7.13;;;;;;;18.85;47.50;100701.72;5051516;28;20131;-58
2022/04/05 11:31:04;;;;;;;12.10;6.70;;;;;;;18.84;47.48;100694.66;5050797;28;20345;-60